TimeCDT,TemperatureF,Dew PointF,Humidity,Sea Level PressureIn,VisibilityMPH,Wind Direction,Wind SpeedMPH,Gust SpeedMPH,PrecipitationIn,Events,Conditions,WindDirDegrees,DateUTC
12:15 AM,31.5,29.1,91,30.21,7.0,North,6.9,-,N/A,,Overcast,10,2013-04-04 05:15:00
12:35 AM,31.5,29.1,91,30.21,10.0,North,8.1,-,N/A,,Overcast,360,2013-04-04 05:35:00
12:55 AM,31.1,29.1,92,30.21,7.0,North,6.9,-,N/A,,Overcast,360,2013-04-04 05:55:00
1:15 AM,31.1,29.3,93,30.19,5.0,NNE,4.6,-,N/A,,Overcast,20,2013-04-04 06:15:00
1:35 AM,31.1,29.3,93,30.19,5.0,North,5.8,-,N/A,,Overcast,10,2013-04-04 06:35:00
1:55 AM,31.1,29.7,94,30.19,5.0,North,5.8,-,N/A,,Overcast,10,2013-04-04 06:55:00
2:15 AM,31.3,29.7,94,30.19,5.0,North,6.9,-,N/A,,Overcast,350,2013-04-04 07:15:00
2:35 AM,31.6,30.0,94,30.18,5.0,NNW,6.9,-,N/A,,Overcast,340,2013-04-04 07:35:00
2:55 AM,31.6,30.0,94,30.17,5.0,North,6.9,-,N/A,,Overcast,350,2013-04-04 07:55:00
3:15 AM,31.6,30.2,94,30.17,5.0,NNW,4.6,-,N/A,,Overcast,330,2013-04-04 08:15:00
3:35 AM,30.0,28.4,94,30.17,4.0,WNW,5.8,-,N/A,,Mostly Cloudy,300,2013-04-04 08:35:00
3:55 AM,28.8,27.3,94,30.16,3.0,WNW,5.8,-,N/A,,Scattered Clouds,290,2013-04-04 08:55:00
4:15 AM,28.8,27.5,95,30.16,2.5,WNW,4.6,-,N/A,,Clear,300,2013-04-04 09:15:00
4:35 AM,28.2,27.0,95,30.16,3.0,WNW,3.5,-,N/A,,Clear,300,2013-04-04 09:35:00
4:55 AM,28.4,27.1,95,30.16,4.0,NW,3.5,-,N/A,,Clear,310,2013-04-04 09:55:00
5:15 AM,27.7,26.6,96,30.16,4.0,WNW,5.8,-,N/A,,Clear,300,2013-04-04 10:15:00
5:35 AM,27.1,25.9,95,30.15,4.0,NW,4.6,-,N/A,,Clear,320,2013-04-04 10:35:00
5:55 AM,27.5,26.4,96,30.15,4.0,North,5.8,-,N/A,,Clear,350,2013-04-04 10:55:00
6:15 AM,29.8,28.6,95,30.16,4.0,NNW,3.5,-,N/A,,Mostly Cloudy,340,2013-04-04 11:15:00
6:35 AM,31.1,29.8,95,30.16,3.0,North,5.8,-,N/A,,Overcast,360,2013-04-04 11:35:00
6:55 AM,30.9,29.5,94,30.16,2.0,NNE,3.5,-,N/A,,Overcast,20,2013-04-04 11:55:00
7:15 AM,30.6,29.3,95,30.16,0.8,North,4.6,-,N/A,,Overcast,360,2013-04-04 12:15:00
7:35 AM,30.2,29.3,96,30.17,0.2,NNW,4.6,-,N/A,Fog,Light Freezing Fog,340,2013-04-04 12:35:00
7:55 AM,30.2,29.1,96,30.18,0.2,NW,3.5,-,N/A,Fog,Light Freezing Fog,320,2013-04-04 12:55:00
8:15 AM,30.0,28.9,96,30.18,0.2,NW,4.6,-,N/A,Fog,Light Freezing Fog,320,2013-04-04 13:15:00
8:35 AM,30.4,29.3,96,30.19,0.2,NNW,5.8,-,N/A,Fog,Light Freezing Fog,340,2013-04-04 13:35:00
8:55 AM,30.7,29.7,96,30.19,0.2,North,4.6,-,N/A,Fog,Light Freezing Fog,360,2013-04-04 13:55:00
9:15 AM,31.5,30.2,95,30.19,0.2,North,4.6,-,N/A,Fog,Light Freezing Fog,350,2013-04-04 14:15:00
9:35 AM,31.6,30.7,96,30.19,0.2,Calm,Calm,-,N/A,Fog,Fog,0,2013-04-04 14:35:00
9:55 AM,32.4,31.8,98,30.21,0.5,NW,3.5,-,N/A,Fog,Fog,320,2013-04-04 14:55:00
10:15 AM,33.6,32.5,96,30.20,1.2,NNW,5.8,-,N/A,,Overcast,330,2013-04-04 15:15:00
10:35 AM,34.9,34.0,97,30.21,2.5,NNW,6.9,-,N/A,,Overcast,330,2013-04-04 15:35:00
10:55 AM,37.2,35.1,92,30.21,7.0,North,6.9,-,N/A,,Overcast,350,2013-04-04 15:55:00
11:35 AM,41.4,34.0,75,30.20,10.0,WNW,4.6,-,N/A,,Scattered Clouds,290,2013-04-04 16:35:00
11:55 AM,42.8,34.0,71,30.19,10.0,Calm,Calm,-,N/A,,Clear,0,2013-04-04 16:55:00
12:15 PM,45.0,34.2,66,30.19,10.0,North,3.5,-,N/A,,Clear,350,2013-04-04 17:15:00
12:35 PM,46.8,33.8,61,30.18,10.0,NNW,4.6,-,N/A,,Clear,330,2013-04-04 17:35:00
12:55 PM,49.5,32.9,53,30.18,10.0,North,6.9,-,N/A,,Clear,350,2013-04-04 17:55:00
1:15 PM,51.3,33.1,50,30.17,10.0,North,4.6,-,N/A,,Clear,350,2013-04-04 18:15:00
1:35 PM,52.3,33.1,48,30.17,10.0,NW,8.1,-,N/A,,Clear,310,2013-04-04 18:35:00
1:55 PM,54.7,32.7,43,30.16,10.0,NNW,8.1,-,N/A,,Clear,340,2013-04-04 18:55:00
2:15 PM,55.9,33.3,42,30.16,10.0,North,4.6,17.3,N/A,,Clear,360,2013-04-04 19:15:00
2:35 PM,56.3,33.4,42,30.14,10.0,North,5.8,-,N/A,,Clear,350,2013-04-04 19:35:00
2:55 PM,56.8,32.7,40,30.14,10.0,North,6.9,-,N/A,,Clear,360,2013-04-04 19:55:00
3:15 PM,58.1,32.5,38,30.14,10.0,Calm,Calm,-,N/A,,Clear,0,2013-04-04 20:15:00
3:35 PM,59.9,32.4,35,30.13,10.0,North,6.9,-,N/A,,Clear,10,2013-04-04 20:35:00
3:55 PM,60.1,31.6,34,30.13,10.0,North,4.6,-,N/A,,Clear,350,2013-04-04 20:55:00
4:15 PM,61.0,32.0,34,30.12,10.0,North,4.6,-,N/A,,Clear,10,2013-04-04 21:15:00
4:35 PM,61.3,29.7,30,30.12,10.0,East,5.8,-,N/A,,Clear,100,2013-04-04 21:35:00
4:55 PM,61.7,29.8,30,30.12,10.0,NE,4.6,-,N/A,,Clear,40,2013-04-04 21:55:00
5:15 PM,61.9,29.1,29,30.12,10.0,NNE,4.6,-,N/A,,Clear,20,2013-04-04 22:15:00
5:35 PM,61.5,29.3,30,30.12,10.0,Calm,Calm,-,N/A,,Clear,0,2013-04-04 22:35:00
5:55 PM,62.4,28.8,28,30.12,10.0,NE,4.6,-,N/A,,Clear,40,2013-04-04 22:55:00
6:15 PM,61.9,28.6,28,30.13,10.0,East,6.9,-,N/A,,Clear,90,2013-04-04 23:15:00
6:35 PM,61.3,28.0,28,30.13,10.0,East,4.6,-,N/A,,Clear,90,2013-04-04 23:35:00
6:55 PM,60.8,28.4,29,30.13,10.0,East,5.8,-,N/A,,Clear,100,2013-04-04 23:55:00
7:15 PM,59.9,27.5,29,30.13,10.0,ESE,4.6,-,N/A,,Clear,120,2013-04-05 00:15:00
7:35 PM,58.5,30.6,35,30.14,10.0,SE,4.6,-,N/A,,Clear,130,2013-04-05 00:35:00
7:55 PM,55.6,30.7,39,30.14,10.0,ESE,5.8,-,N/A,,Clear,110,2013-04-05 00:55:00
8:15 PM,52.7,30.6,43,30.13,10.0,ESE,6.9,-,N/A,,Clear,120,2013-04-05 01:15:00
8:35 PM,52.7,30.6,43,30.13,10.0,ESE,9.2,-,N/A,,Clear,120,2013-04-05 01:35:00
8:55 PM,50.4,31.8,49,30.13,10.0,ESE,10.4,-,N/A,,Clear,120,2013-04-05 01:55:00
9:15 PM,49.1,32.0,52,30.13,10.0,SE,11.5,-,N/A,,Clear,130,2013-04-05 02:15:00
9:35 PM,44.2,31.8,62,30.14,10.0,SE,9.2,-,N/A,,Clear,140,2013-04-05 02:35:00
9:55 PM,44.2,31.8,62,30.14,10.0,SE,8.1,-,N/A,,Clear,140,2013-04-05 02:55:00
10:15 PM,45.5,32.4,60,30.16,10.0,SSE,8.1,-,N/A,,Clear,150,2013-04-05 03:15:00
10:35 PM,42.8,32.9,68,30.17,10.0,South,9.2,-,N/A,,Clear,170,2013-04-05 03:35:00
10:55 PM,43.2,33.8,70,30.17,10.0,South,9.2,-,N/A,,Clear,170,2013-04-05 03:55:00
11:15 PM,41.4,33.8,74,30.16,10.0,South,9.2,-,N/A,,Clear,170,2013-04-05 04:15:00
11:35 PM,41.9,35.1,77,30.16,10.0,South,10.4,-,N/A,,Clear,170,2013-04-05 04:35:00
11:55 PM,42.1,35.6,78,30.16,10.0,South,10.4,-,N/A,,Clear,170,2013-04-05 04:55:00